sensor_id;sensor_type;location;lat;lon;timestamp;temperature;humidity
7876;DHT22;69649;53.712;9.680;2023-10-09T00:00:27;11.10;77.50
7876;DHT22;69649;53.712;9.680;2023-10-09T00:03:12;11.20;77.50
7876;DHT22;69649;53.712;9.680;2023-10-09T00:05:38;11.20;77.50
7876;DHT22;69649;53.712;9.680;2023-10-09T00:08:06;11.30;77.40
7876;DHT22;69649;53.712;9.680;2023-10-09T00:10:33;11.30;77.10
7876;DHT22;69649;53.712;9.680;2023-10-09T00:13:01;11.30;77.20
7876;DHT22;69649;53.712;9.680;2023-10-09T00:15:27;11.20;77.10
7876;DHT22;69649;53.712;9.680;2023-10-09T00:17:54;11.20;77.20
7876;DHT22;69649;53.712;9.680;2023-10-09T00:20:21;11.10;77.00
7876;DHT22;69649;53.712;9.680;2023-10-09T00:22:49;11.10;77.10
7876;DHT22;69649;53.712;9.680;2023-10-09T00:25:17;11.10;77.00
7876;DHT22;69649;53.712;9.680;2023-10-09T00:27:50;11.10;77.10
7876;DHT22;69649;53.712;9.680;2023-10-09T00:30:17;11.10;77.20
7876;DHT22;69649;53.712;9.680;2023-10-09T00:32:44;11.20;77.20
7876;DHT22;69649;53.712;9.680;2023-10-09T00:35:29;11.30;76.80
7876;DHT22;69649;53.712;9.680;2023-10-09T00:38:12;11.30;76.70
7876;DHT22;69649;53.712;9.680;2023-10-09T00:40:50;11.30;76.50
7876;DHT22;69649;53.712;9.680;2023-10-09T00:43:18;11.20;76.50
7876;DHT22;69649;53.712;9.680;2023-10-09T00:45:46;11.20;76.70
7876;DHT22;69649;53.712;9.680;2023-10-09T00:48:13;11.10;76.90
7876;DHT22;69649;53.712;9.680;2023-10-09T00:50:41;11.10;76.90
7876;DHT22;69649;53.712;9.680;2023-10-09T00:53:08;11.10;76.90
7876;DHT22;69649;53.712;9.680;2023-10-09T00:55:36;11.10;76.90
7876;DHT22;69649;53.712;9.680;2023-10-09T00:58:05;11.10;76.80
7876;DHT22;69649;53.712;9.680;2023-10-09T01:00:33;11.10;76.90
7876;DHT22;69649;53.712;9.680;2023-10-09T01:03:02;11.10;77.10
7876;DHT22;69649;53.712;9.680;2023-10-09T01:05:30;11.10;77.10
7876;DHT22;69649;53.712;9.680;2023-10-09T01:07:56;11.10;76.90
7876;DHT22;69649;53.712;9.680;2023-10-09T01:10:24;11.10;76.90
7876;DHT22;69649;53.712;9.680;2023-10-09T01:12:51;11.00;76.90
7876;DHT22;69649;53.712;9.680;2023-10-09T01:15:19;11.00;77.20
7876;DHT22;69649;53.712;9.680;2023-10-09T01:17:46;10.90;77.40
7876;DHT22;69649;53.712;9.680;2023-10-09T01:20:13;10.90;77.60
7876;DHT22;69649;53.712;9.680;2023-10-09T01:22:40;10.90;77.70
7876;DHT22;69649;53.712;9.680;2023-10-09T01:25:09;10.90;77.60
7876;DHT22;69649;53.712;9.680;2023-10-09T01:27:35;10.90;77.50
7876;DHT22;69649;53.712;9.680;2023-10-09T01:30:04;10.90;77.40
7876;DHT22;69649;53.712;9.680;2023-10-09T01:32:30;10.90;77.30
7876;DHT22;69649;53.712;9.680;2023-10-09T01:34:56;10.90;77.50
7876;DHT22;69649;53.712;9.680;2023-10-09T01:37:23;10.90;77.50
7876;DHT22;69649;53.712;9.680;2023-10-09T01:39:56;11.00;77.20
7876;DHT22;69649;53.712;9.680;2023-10-09T01:42:23;10.90;77.10
7876;DHT22;69649;53.712;9.680;2023-10-09T01:44:57;10.90;77.40
7876;DHT22;69649;53.712;9.680;2023-10-09T01:47:43;10.90;77.60
7876;DHT22;69649;53.712;9.680;2023-10-09T01:50:20;10.90;77.50
7876;DHT22;69649;53.712;9.680;2023-10-09T01:52:57;10.90;77.50
7876;DHT22;69649;53.712;9.680;2023-10-09T01:55:24;10.90;77.60
7876;DHT22;69649;53.712;9.680;2023-10-09T01:57:55;11.00;77.60
7876;DHT22;69649;53.712;9.680;2023-10-09T02:00:26;11.00;77.60
7876;DHT22;69649;53.712;9.680;2023-10-09T02:02:53;11.00;77.80
7876;DHT22;69649;53.712;9.680;2023-10-09T02:05:19;11.00;77.70
7876;DHT22;69649;53.712;9.680;2023-10-09T02:07:47;11.10;77.80
7876;DHT22;69649;53.712;9.680;2023-10-09T02:10:23;11.10;77.80
7876;DHT22;69649;53.712;9.680;2023-10-09T02:12:59;11.10;77.60
7876;DHT22;69649;53.712;9.680;2023-10-09T02:15:27;11.00;77.40
7876;DHT22;69649;53.712;9.680;2023-10-09T02:18:08;11.00;77.60
7876;DHT22;69649;53.712;9.680;2023-10-09T02:23:33;11.00;77.90
7876;DHT22;69649;53.712;9.680;2023-10-09T02:26:07;11.00;78.00
7876;DHT22;69649;53.712;9.680;2023-10-09T02:28:35;11.00;78.00
7876;DHT22;69649;53.712;9.680;2023-10-09T02:31:09;11.00;78.00
7876;DHT22;69649;53.712;9.680;2023-10-09T02:33:36;11.00;78.10
7876;DHT22;69649;53.712;9.680;2023-10-09T02:36:02;11.00;78.00
7876;DHT22;69649;53.712;9.680;2023-10-09T02:38:31;10.90;77.60
7876;DHT22;69649;53.712;9.680;2023-10-09T02:40:58;10.90;77.90
7876;DHT22;69649;53.712;9.680;2023-10-09T02:43:33;10.90;77.90
7876;DHT22;69649;53.712;9.680;2023-10-09T02:46:01;10.80;77.80
7876;DHT22;69649;53.712;9.680;2023-10-09T02:48:28;10.80;77.90
7876;DHT22;69649;53.712;9.680;2023-10-09T02:50:56;10.70;78.00
7876;DHT22;69649;53.712;9.680;2023-10-09T02:53:23;10.70;78.00
7876;DHT22;69649;53.712;9.680;2023-10-09T02:55:50;10.70;78.20
7876;DHT22;69649;53.712;9.680;2023-10-09T02:58:20;10.70;78.10
7876;DHT22;69649;53.712;9.680;2023-10-09T03:00:46;10.70;77.90
7876;DHT22;69649;53.712;9.680;2023-10-09T03:03:14;10.70;78.20
7876;DHT22;69649;53.712;9.680;2023-10-09T03:05:41;10.70;78.30
7876;DHT22;69649;53.712;9.680;2023-10-09T03:08:07;10.80;78.10
7876;DHT22;69649;53.712;9.680;2023-10-09T03:10:35;10.70;77.70
7876;DHT22;69649;53.712;9.680;2023-10-09T03:13:02;10.70;77.90
7876;DHT22;69649;53.712;9.680;2023-10-09T03:15:29;10.70;77.70
7876;DHT22;69649;53.712;9.680;2023-10-09T03:17:57;10.60;77.70
7876;DHT22;69649;53.712;9.680;2023-10-09T03:20:24;10.60;78.00
7876;DHT22;69649;53.712;9.680;2023-10-09T03:22:50;10.60;77.90
7876;DHT22;69649;53.712;9.680;2023-10-09T03:25:15;10.50;78.10
7876;DHT22;69649;53.712;9.680;2023-10-09T03:27:43;10.50;78.40
7876;DHT22;69649;53.712;9.680;2023-10-09T03:32:50;10.50;78.00
7876;DHT22;69649;53.712;9.680;2023-10-09T03:35:18;10.40;78.00
7876;DHT22;69649;53.712;9.680;2023-10-09T03:38:06;10.40;78.30
7876;DHT22;69649;53.712;9.680;2023-10-09T03:40:45;10.40;77.90
7876;DHT22;69649;53.712;9.680;2023-10-09T03:43:10;10.40;78.10
7876;DHT22;69649;53.712;9.680;2023-10-09T03:45:37;10.40;77.80
7876;DHT22;69649;53.712;9.680;2023-10-09T03:48:05;10.40;77.80
7876;DHT22;69649;53.712;9.680;2023-10-09T03:50:37;10.40;77.80
7876;DHT22;69649;53.712;9.680;2023-10-09T03:53:06;10.40;77.60
7876;DHT22;69649;53.712;9.680;2023-10-09T03:58:21;10.40;77.70
7876;DHT22;69649;53.712;9.680;2023-10-09T04:00:47;10.40;77.60
7876;DHT22;69649;53.712;9.680;2023-10-09T04:03:15;10.30;77.80
7876;DHT22;69649;53.712;9.680;2023-10-09T04:05:41;10.20;77.90
7876;DHT22;69649;53.712;9.680;2023-10-09T04:08:12;10.20;77.80
7876;DHT22;69649;53.712;9.680;2023-10-09T04:10:49;10.30;77.90
7876;DHT22;69649;53.712;9.680;2023-10-09T04:13:18;10.30;77.90
7876;DHT22;69649;53.712;9.680;2023-10-09T04:15:46;10.20;77.90
7876;DHT22;69649;53.712;9.680;2023-10-09T04:18:14;10.30;78.00
7876;DHT22;69649;53.712;9.680;2023-10-09T04:20:42;10.30;78.00
7876;DHT22;69649;53.712;9.680;2023-10-09T04:23:27;10.30;77.50
7876;DHT22;69649;53.712;9.680;2023-10-09T04:26:04;10.30;77.50
7876;DHT22;69649;53.712;9.680;2023-10-09T04:28:31;10.30;77.20
7876;DHT22;69649;53.712;9.680;2023-10-09T04:30:58;10.20;77.20
7876;DHT22;69649;53.712;9.680;2023-10-09T04:33:26;10.30;77.40
7876;DHT22;69649;53.712;9.680;2023-10-09T04:36:05;10.20;77.30
7876;DHT22;69649;53.712;9.680;2023-10-09T04:38:51;10.20;77.20
7876;DHT22;69649;53.712;9.680;2023-10-09T04:41:31;10.20;77.40
7876;DHT22;69649;53.712;9.680;2023-10-09T04:44:10;10.20;77.20
7876;DHT22;69649;53.712;9.680;2023-10-09T04:46:49;10.20;77.30
7876;DHT22;69649;53.712;9.680;2023-10-09T04:49:17;10.20;77.20
7876;DHT22;69649;53.712;9.680;2023-10-09T04:51:53;10.20;77.30
7876;DHT22;69649;53.712;9.680;2023-10-09T04:54:30;10.20;77.00
7876;DHT22;69649;53.712;9.680;2023-10-09T04:57:07;10.20;77.10
7876;DHT22;69649;53.712;9.680;2023-10-09T04:59:35;10.20;77.20
7876;DHT22;69649;53.712;9.680;2023-10-09T05:02:02;10.20;77.20
7876;DHT22;69649;53.712;9.680;2023-10-09T05:04:30;10.20;77.20
7876;DHT22;69649;53.712;9.680;2023-10-09T05:07:00;10.20;77.10
7876;DHT22;69649;53.712;9.680;2023-10-09T05:09:29;10.20;77.80
7876;DHT22;69649;53.712;9.680;2023-10-09T05:11:56;10.20;77.20
7876;DHT22;69649;53.712;9.680;2023-10-09T05:14:24;10.20;77.30
7876;DHT22;69649;53.712;9.680;2023-10-09T05:16:55;10.20;77.20
7876;DHT22;69649;53.712;9.680;2023-10-09T05:19:22;10.20;77.20
7876;DHT22;69649;53.712;9.680;2023-10-09T05:22:06;10.20;77.20
7876;DHT22;69649;53.712;9.680;2023-10-09T05:24:34;10.20;77.30
7876;DHT22;69649;53.712;9.680;2023-10-09T05:27:01;10.20;77.40
7876;DHT22;69649;53.712;9.680;2023-10-09T05:29:29;10.20;77.40
7876;DHT22;69649;53.712;9.680;2023-10-09T05:32:06;10.20;77.40
7876;DHT22;69649;53.712;9.680;2023-10-09T05:34:44;10.00;77.90
7876;DHT22;69649;53.712;9.680;2023-10-09T05:37:32;10.00;78.00
7876;DHT22;69649;53.712;9.680;2023-10-09T05:39:59;10.00;77.90
7876;DHT22;69649;53.712;9.680;2023-10-09T05:42:34;10.00;77.80
7876;DHT22;69649;53.712;9.680;2023-10-09T05:45:06;10.00;77.90
7876;DHT22;69649;53.712;9.680;2023-10-09T05:47:53;10.00;77.90
7876;DHT22;69649;53.712;9.680;2023-10-09T05:52:54;9.90;78.00
7876;DHT22;69649;53.712;9.680;2023-10-09T05:55:24;9.80;78.00
7876;DHT22;69649;53.712;9.680;2023-10-09T05:57:52;9.80;78.50
7876;DHT22;69649;53.712;9.680;2023-10-09T06:00:24;9.80;78.80
7876;DHT22;69649;53.712;9.680;2023-10-09T06:03:08;9.80;78.50
7876;DHT22;69649;53.712;9.680;2023-10-09T06:05:52;9.80;78.70
7876;DHT22;69649;53.712;9.680;2023-10-09T06:08:30;9.80;79.00
7876;DHT22;69649;53.712;9.680;2023-10-09T06:11:11;9.80;78.90
7876;DHT22;69649;53.712;9.680;2023-10-09T06:13:58;9.70;79.10
7876;DHT22;69649;53.712;9.680;2023-10-09T06:16:33;9.80;79.20
7876;DHT22;69649;53.712;9.680;2023-10-09T06:19:09;9.80;79.30
7876;DHT22;69649;53.712;9.680;2023-10-09T06:21:41;9.80;79.40
7876;DHT22;69649;53.712;9.680;2023-10-09T06:24:24;9.80;79.40
7876;DHT22;69649;53.712;9.680;2023-10-09T06:26:52;9.80;79.30
7876;DHT22;69649;53.712;9.680;2023-10-09T06:32:18;9.80;79.70
7876;DHT22;69649;53.712;9.680;2023-10-09T06:34:48;9.70;80.30
7876;DHT22;69649;53.712;9.680;2023-10-09T06:37:21;9.70;80.40
7876;DHT22;69649;53.712;9.680;2023-10-09T06:39:52;9.70;80.20
7876;DHT22;69649;53.712;9.680;2023-10-09T06:42:27;9.70;80.50
7876;DHT22;69649;53.712;9.680;2023-10-09T06:47:53;9.80;80.40
7876;DHT22;69649;53.712;9.680;2023-10-09T06:53:26;9.90;80.00
7876;DHT22;69649;53.712;9.680;2023-10-09T06:55:54;10.00;80.00
7876;DHT22;69649;53.712;9.680;2023-10-09T06:58:31;10.00;80.10
7876;DHT22;69649;53.712;9.680;2023-10-09T07:00:59;9.90;80.00
7876;DHT22;69649;53.712;9.680;2023-10-09T07:03:29;10.00;80.10
7876;DHT22;69649;53.712;9.680;2023-10-09T07:06:04;10.00;80.00
7876;DHT22;69649;53.712;9.680;2023-10-09T07:08:51;10.00;80.20
7876;DHT22;69649;53.712;9.680;2023-10-09T07:11:25;10.00;80.10
7876;DHT22;69649;53.712;9.680;2023-10-09T07:13:56;10.00;80.00
7876;DHT22;69649;53.712;9.680;2023-10-09T07:16:22;10.00;80.20
7876;DHT22;69649;53.712;9.680;2023-10-09T07:18:56;10.10;80.80
7876;DHT22;69649;53.712;9.680;2023-10-09T07:21:23;10.00;80.60
7876;DHT22;69649;53.712;9.680;2023-10-09T07:23:51;10.00;80.80
7876;DHT22;69649;53.712;9.680;2023-10-09T07:26:19;10.00;80.80
7876;DHT22;69649;53.712;9.680;2023-10-09T07:28:46;10.00;81.00
7876;DHT22;69649;53.712;9.680;2023-10-09T07:31:20;10.00;81.10
7876;DHT22;69649;53.712;9.680;2023-10-09T07:33:53;10.00;81.00
7876;DHT22;69649;53.712;9.680;2023-10-09T07:36:26;10.10;80.90
7876;DHT22;69649;53.712;9.680;2023-10-09T07:39:04;10.10;80.90
7876;DHT22;69649;53.712;9.680;2023-10-09T07:41:32;10.00;81.10
7876;DHT22;69649;53.712;9.680;2023-10-09T07:43:59;10.10;81.00
7876;DHT22;69649;53.712;9.680;2023-10-09T07:46:27;10.10;80.90
7876;DHT22;69649;53.712;9.680;2023-10-09T07:49:00;10.20;80.70
7876;DHT22;69649;53.712;9.680;2023-10-09T07:51:28;10.10;81.00
7876;DHT22;69649;53.712;9.680;2023-10-09T07:53:57;10.10;81.00
7876;DHT22;69649;53.712;9.680;2023-10-09T07:56:25;10.00;81.60
7876;DHT22;69649;53.712;9.680;2023-10-09T07:58:53;10.10;81.60
7876;DHT22;69649;53.712;9.680;2023-10-09T08:01:19;10.10;81.60
7876;DHT22;69649;53.712;9.680;2023-10-09T08:04:03;10.10;81.70
7876;DHT22;69649;53.712;9.680;2023-10-09T08:06:31;10.10;81.80
7876;DHT22;69649;53.712;9.680;2023-10-09T08:09:08;10.20;82.20
7876;DHT22;69649;53.712;9.680;2023-10-09T08:11:41;10.20;82.10
7876;DHT22;69649;53.712;9.680;2023-10-09T08:16:37;10.20;82.00
7876;DHT22;69649;53.712;9.680;2023-10-09T08:19:04;10.30;81.70
7876;DHT22;69649;53.712;9.680;2023-10-09T08:21:32;10.30;81.80
7876;DHT22;69649;53.712;9.680;2023-10-09T08:24:11;10.30;81.80
7876;DHT22;69649;53.712;9.680;2023-10-09T08:26:42;10.40;81.80
7876;DHT22;69649;53.712;9.680;2023-10-09T08:29:09;10.40;81.80
7876;DHT22;69649;53.712;9.680;2023-10-09T08:31:43;10.40;81.90
7876;DHT22;69649;53.712;9.680;2023-10-09T08:34:13;10.40;81.70
7876;DHT22;69649;53.712;9.680;2023-10-09T08:36:52;10.50;81.50
7876;DHT22;69649;53.712;9.680;2023-10-09T08:39:19;10.60;81.40
7876;DHT22;69649;53.712;9.680;2023-10-09T08:41:54;10.60;81.20
7876;DHT22;69649;53.712;9.680;2023-10-09T08:44:23;10.70;81.10
7876;DHT22;69649;53.712;9.680;2023-10-09T08:46:51;10.70;80.90
7876;DHT22;69649;53.712;9.680;2023-10-09T08:49:17;10.80;80.90
7876;DHT22;69649;53.712;9.680;2023-10-09T08:51:45;10.80;80.90
7876;DHT22;69649;53.712;9.680;2023-10-09T08:54:12;10.80;81.00
7876;DHT22;69649;53.712;9.680;2023-10-09T08:56:39;10.90;80.90
7876;DHT22;69649;53.712;9.680;2023-10-09T08:59:07;11.00;80.80
7876;DHT22;69649;53.712;9.680;2023-10-09T09:01:33;11.00;80.80
7876;DHT22;69649;53.712;9.680;2023-10-09T09:04:00;11.10;80.50
7876;DHT22;69649;53.712;9.680;2023-10-09T09:06:36;11.10;80.50
7876;DHT22;69649;53.712;9.680;2023-10-09T09:09:00;11.10;80.70
7876;DHT22;69649;53.712;9.680;2023-10-09T09:11:29;11.10;80.60
7876;DHT22;69649;53.712;9.680;2023-10-09T09:14:02;11.10;80.50
7876;DHT22;69649;53.712;9.680;2023-10-09T09:16:33;11.10;80.30
7876;DHT22;69649;53.712;9.680;2023-10-09T09:19:30;11.30;80.60
7876;DHT22;69649;53.712;9.680;2023-10-09T09:21:52;11.30;80.40
7876;DHT22;69649;53.712;9.680;2023-10-09T09:24:24;11.30;80.50
7876;DHT22;69649;53.712;9.680;2023-10-09T09:26:54;11.40;80.40
7876;DHT22;69649;53.712;9.680;2023-10-09T09:29:39;11.40;80.40
7876;DHT22;69649;53.712;9.680;2023-10-09T09:32:07;11.40;80.30
7876;DHT22;69649;53.712;9.680;2023-10-09T09:34:51;11.40;80.20
7876;DHT22;69649;53.712;9.680;2023-10-09T09:37:26;11.40;80.00
7876;DHT22;69649;53.712;9.680;2023-10-09T09:39:57;11.40;80.20
7876;DHT22;69649;53.712;9.680;2023-10-09T09:42:24;11.50;80.40
7876;DHT22;69649;53.712;9.680;2023-10-09T09:44:51;11.50;80.30
7876;DHT22;69649;53.712;9.680;2023-10-09T09:47:18;11.50;80.00
7876;DHT22;69649;53.712;9.680;2023-10-09T09:49:54;11.50;80.00
7876;DHT22;69649;53.712;9.680;2023-10-09T09:52:29;11.60;80.30
7876;DHT22;69649;53.712;9.680;2023-10-09T09:54:57;11.60;80.20
7876;DHT22;69649;53.712;9.680;2023-10-09T09:57:24;11.70;80.10
7876;DHT22;69649;53.712;9.680;2023-10-09T09:59:55;11.70;79.90
7876;DHT22;69649;53.712;9.680;2023-10-09T10:02:29;11.70;79.90
7876;DHT22;69649;53.712;9.680;2023-10-09T10:04:56;11.70;80.10
7876;DHT22;69649;53.712;9.680;2023-10-09T10:07:23;11.70;80.10
7876;DHT22;69649;53.712;9.680;2023-10-09T10:09:50;11.70;80.30
7876;DHT22;69649;53.712;9.680;2023-10-09T10:12:49;11.70;80.30
7876;DHT22;69649;53.712;9.680;2023-10-09T10:17:27;11.80;80.20
7876;DHT22;69649;53.712;9.680;2023-10-09T10:22:47;11.90;80.40
7876;DHT22;69649;53.712;9.680;2023-10-09T10:30:55;11.90;80.20
7876;DHT22;69649;53.712;9.680;2023-10-09T10:33:21;12.00;80.30
7876;DHT22;69649;53.712;9.680;2023-10-09T10:35:48;12.00;80.30
7876;DHT22;69649;53.712;9.680;2023-10-09T10:40:50;12.10;80.90
7876;DHT22;69649;53.712;9.680;2023-10-09T10:43:26;12.30;81.30
7876;DHT22;69649;53.712;9.680;2023-10-09T10:46:04;12.40;80.60
7876;DHT22;69649;53.712;9.680;2023-10-09T10:48:35;12.40;80.20
7876;DHT22;69649;53.712;9.680;2023-10-09T10:51:20;12.50;80.20
7876;DHT22;69649;53.712;9.680;2023-10-09T10:53:51;12.50;79.80
7876;DHT22;69649;53.712;9.680;2023-10-09T10:56:19;12.50;79.80
7876;DHT22;69649;53.712;9.680;2023-10-09T10:58:55;12.60;79.70
7876;DHT22;69649;53.712;9.680;2023-10-09T11:01:33;12.60;80.10
7876;DHT22;69649;53.712;9.680;2023-10-09T11:04:10;12.70;79.90
7876;DHT22;69649;53.712;9.680;2023-10-09T11:06:33;12.70;79.60
7876;DHT22;69649;53.712;9.680;2023-10-09T11:09:07;12.70;80.20
7876;DHT22;69649;53.712;9.680;2023-10-09T11:12:03;12.50;80.70
7876;DHT22;69649;53.712;9.680;2023-10-09T11:14:27;12.50;81.20
7876;DHT22;69649;53.712;9.680;2023-10-09T11:16:55;12.50;81.50
7876;DHT22;69649;53.712;9.680;2023-10-09T11:19:24;12.50;81.60
7876;DHT22;69649;53.712;9.680;2023-10-09T11:21:56;12.50;81.70
7876;DHT22;69649;53.712;9.680;2023-10-09T11:24:43;12.50;82.00
7876;DHT22;69649;53.712;9.680;2023-10-09T11:27:09;12.50;82.20
7876;DHT22;69649;53.712;9.680;2023-10-09T11:29:40;12.70;81.80
7876;DHT22;69649;53.712;9.680;2023-10-09T11:32:20;12.80;81.30
7876;DHT22;69649;53.712;9.680;2023-10-09T11:34:48;12.90;80.90
7876;DHT22;69649;53.712;9.680;2023-10-09T11:37:22;12.90;80.50
7876;DHT22;69649;53.712;9.680;2023-10-09T11:39:56;13.00;80.10
7876;DHT22;69649;53.712;9.680;2023-10-09T11:42:27;13.00;80.30
7876;DHT22;69649;53.712;9.680;2023-10-09T11:45:23;13.00;79.70
7876;DHT22;69649;53.712;9.680;2023-10-09T11:47:52;13.00;79.80
7876;DHT22;69649;53.712;9.680;2023-10-09T11:50:45;13.10;80.10
7876;DHT22;69649;53.712;9.680;2023-10-09T11:53:44;13.10;80.00
7876;DHT22;69649;53.712;9.680;2023-10-09T11:56:16;13.30;80.10
7876;DHT22;69649;53.712;9.680;2023-10-09T11:58:49;13.30;79.40
7876;DHT22;69649;53.712;9.680;2023-10-09T12:01:19;13.20;79.80
7876;DHT22;69649;53.712;9.680;2023-10-09T12:03:49;13.30;79.80
7876;DHT22;69649;53.712;9.680;2023-10-09T12:06:36;13.30;79.60
7876;DHT22;69649;53.712;9.680;2023-10-09T12:09:02;13.30;80.20
7876;DHT22;69649;53.712;9.680;2023-10-09T12:11:30;13.30;80.00
7876;DHT22;69649;53.712;9.680;2023-10-09T12:13:56;13.30;80.50
7876;DHT22;69649;53.712;9.680;2023-10-09T12:16:23;13.30;80.60
7876;DHT22;69649;53.712;9.680;2023-10-09T12:18:51;13.40;80.50
7876;DHT22;69649;53.712;9.680;2023-10-09T12:21:20;13.50;80.00
7876;DHT22;69649;53.712;9.680;2023-10-09T12:23:45;13.50;79.80
7876;DHT22;69649;53.712;9.680;2023-10-09T12:26:13;13.50;79.40
7876;DHT22;69649;53.712;9.680;2023-10-09T12:28:42;13.50;79.30
7876;DHT22;69649;53.712;9.680;2023-10-09T12:31:16;13.50;79.20
7876;DHT22;69649;53.712;9.680;2023-10-09T12:33:44;13.50;79.10
7876;DHT22;69649;53.712;9.680;2023-10-09T12:36:13;13.50;79.10
7876;DHT22;69649;53.712;9.680;2023-10-09T12:38:48;13.60;79.10
7876;DHT22;69649;53.712;9.680;2023-10-09T12:41:19;13.60;78.90
7876;DHT22;69649;53.712;9.680;2023-10-09T12:43:54;13.60;78.90
7876;DHT22;69649;53.712;9.680;2023-10-09T12:46:21;13.70;78.90
7876;DHT22;69649;53.712;9.680;2023-10-09T12:48:54;13.60;78.80
7876;DHT22;69649;53.712;9.680;2023-10-09T12:51:22;13.60;79.10
7876;DHT22;69649;53.712;9.680;2023-10-09T12:53:50;13.60;79.20
7876;DHT22;69649;53.712;9.680;2023-10-09T12:56:16;13.70;79.10
7876;DHT22;69649;53.712;9.680;2023-10-09T12:58:43;13.70;79.20
7876;DHT22;69649;53.712;9.680;2023-10-09T13:01:19;13.70;79.00
7876;DHT22;69649;53.712;9.680;2023-10-09T13:03:46;13.70;79.20
7876;DHT22;69649;53.712;9.680;2023-10-09T13:06:13;13.70;78.90
7876;DHT22;69649;53.712;9.680;2023-10-09T13:08:41;13.70;78.60
7876;DHT22;69649;53.712;9.680;2023-10-09T13:11:09;13.70;79.00
7876;DHT22;69649;53.712;9.680;2023-10-09T13:13:41;13.70;79.00
7876;DHT22;69649;53.712;9.680;2023-10-09T13:16:19;13.70;79.30
7876;DHT22;69649;53.712;9.680;2023-10-09T13:21:43;13.90;79.00
7876;DHT22;69649;53.712;9.680;2023-10-09T13:24:09;13.90;78.70
7876;DHT22;69649;53.712;9.680;2023-10-09T13:26:44;13.90;78.80
7876;DHT22;69649;53.712;9.680;2023-10-09T13:29:13;14.00;79.00
7876;DHT22;69649;53.712;9.680;2023-10-09T13:31:40;14.10;79.00
7876;DHT22;69649;53.712;9.680;2023-10-09T13:34:07;14.10;78.80
7876;DHT22;69649;53.712;9.680;2023-10-09T13:36:35;14.20;78.50
7876;DHT22;69649;53.712;9.680;2023-10-09T13:39:04;14.20;78.70
7876;DHT22;69649;53.712;9.680;2023-10-09T13:41:48;14.20;78.50
7876;DHT22;69649;53.712;9.680;2023-10-09T13:44:15;14.20;78.50
7876;DHT22;69649;53.712;9.680;2023-10-09T13:46:41;14.30;78.90
7876;DHT22;69649;53.712;9.680;2023-10-09T13:49:08;14.40;79.10
7876;DHT22;69649;53.712;9.680;2023-10-09T13:51:35;14.40;79.00
7876;DHT22;69649;53.712;9.680;2023-10-09T13:54:01;14.50;79.50
7876;DHT22;69649;53.712;9.680;2023-10-09T13:56:27;14.50;79.40
7876;DHT22;69649;53.712;9.680;2023-10-09T13:58:52;14.50;78.80
7876;DHT22;69649;53.712;9.680;2023-10-09T14:01:20;14.50;78.60
7876;DHT22;69649;53.712;9.680;2023-10-09T14:03:55;14.50;78.70
7876;DHT22;69649;53.712;9.680;2023-10-09T14:06:21;14.60;78.70
7876;DHT22;69649;53.712;9.680;2023-10-09T14:08:49;14.60;78.70
7876;DHT22;69649;53.712;9.680;2023-10-09T14:11:16;14.70;78.50
7876;DHT22;69649;53.712;9.680;2023-10-09T14:13:42;14.70;78.40
7876;DHT22;69649;53.712;9.680;2023-10-09T14:16:08;14.70;78.40
7876;DHT22;69649;53.712;9.680;2023-10-09T14:18:39;14.70;78.50
7876;DHT22;69649;53.712;9.680;2023-10-09T14:21:06;14.70;79.00
7876;DHT22;69649;53.712;9.680;2023-10-09T14:23:33;14.70;78.90
7876;DHT22;69649;53.712;9.680;2023-10-09T14:26:00;14.70;78.70
7876;DHT22;69649;53.712;9.680;2023-10-09T14:28:27;14.70;78.70
7876;DHT22;69649;53.712;9.680;2023-10-09T14:30:55;14.70;78.60
7876;DHT22;69649;53.712;9.680;2023-10-09T14:33:22;14.80;78.90
7876;DHT22;69649;53.712;9.680;2023-10-09T14:35:48;14.80;79.20
7876;DHT22;69649;53.712;9.680;2023-10-09T14:38:14;14.90;79.50
7876;DHT22;69649;53.712;9.680;2023-10-09T14:40:45;14.90;79.80
7876;DHT22;69649;53.712;9.680;2023-10-09T14:43:11;15.00;79.80
7876;DHT22;69649;53.712;9.680;2023-10-09T14:45:46;15.00;79.10
7876;DHT22;69649;53.712;9.680;2023-10-09T14:48:15;15.10;78.90
7876;DHT22;69649;53.712;9.680;2023-10-09T14:50:47;15.20;78.70
7876;DHT22;69649;53.712;9.680;2023-10-09T14:53:14;15.20;78.50
7876;DHT22;69649;53.712;9.680;2023-10-09T14:55:41;15.30;78.50
7876;DHT22;69649;53.712;9.680;2023-10-09T14:58:09;15.20;78.70
7876;DHT22;69649;53.712;9.680;2023-10-09T15:00:36;15.30;78.60
7876;DHT22;69649;53.712;9.680;2023-10-09T15:03:04;15.30;78.80
7876;DHT22;69649;53.712;9.680;2023-10-09T15:05:33;15.30;78.90
7876;DHT22;69649;53.712;9.680;2023-10-09T15:07:59;15.30;78.90
7876;DHT22;69649;53.712;9.680;2023-10-09T15:10:26;15.40;78.90
7876;DHT22;69649;53.712;9.680;2023-10-09T15:12:53;15.40;79.00
7876;DHT22;69649;53.712;9.680;2023-10-09T15:15:19;15.30;79.10
7876;DHT22;69649;53.712;9.680;2023-10-09T15:17:47;15.40;79.20
7876;DHT22;69649;53.712;9.680;2023-10-09T15:20:14;15.40;79.30
7876;DHT22;69649;53.712;9.680;2023-10-09T15:22:44;15.40;79.30
7876;DHT22;69649;53.712;9.680;2023-10-09T15:25:11;15.40;79.30
7876;DHT22;69649;53.712;9.680;2023-10-09T15:27:43;15.40;79.50
7876;DHT22;69649;53.712;9.680;2023-10-09T15:30:10;15.40;79.40
7876;DHT22;69649;53.712;9.680;2023-10-09T15:32:38;15.40;79.70
7876;DHT22;69649;53.712;9.680;2023-10-09T15:35:04;15.40;79.90
7876;DHT22;69649;53.712;9.680;2023-10-09T15:37:31;15.40;80.00
7876;DHT22;69649;53.712;9.680;2023-10-09T15:39:57;15.50;80.00
7876;DHT22;69649;53.712;9.680;2023-10-09T15:42:23;15.50;80.30
7876;DHT22;69649;53.712;9.680;2023-10-09T15:44:51;15.50;80.70
7876;DHT22;69649;53.712;9.680;2023-10-09T15:47:19;15.50;81.00
7876;DHT22;69649;53.712;9.680;2023-10-09T15:49:47;15.50;81.10
7876;DHT22;69649;53.712;9.680;2023-10-09T15:52:13;15.50;81.20
7876;DHT22;69649;53.712;9.680;2023-10-09T15:54:41;15.40;81.50
7876;DHT22;69649;53.712;9.680;2023-10-09T15:57:09;15.30;81.70
7876;DHT22;69649;53.712;9.680;2023-10-09T15:59:38;15.30;81.70
7876;DHT22;69649;53.712;9.680;2023-10-09T16:02:04;15.20;81.70
7876;DHT22;69649;53.712;9.680;2023-10-09T16:04:31;15.20;81.80
7876;DHT22;69649;53.712;9.680;2023-10-09T16:06:58;15.20;81.90
7876;DHT22;69649;53.712;9.680;2023-10-09T16:09:24;15.10;81.80
7876;DHT22;69649;53.712;9.680;2023-10-09T16:11:51;15.00;82.00
7876;DHT22;69649;53.712;9.680;2023-10-09T16:14:17;15.00;81.90
7876;DHT22;69649;53.712;9.680;2023-10-09T16:16:43;15.00;82.00
7876;DHT22;69649;53.712;9.680;2023-10-09T16:19:11;15.10;81.80
7876;DHT22;69649;53.712;9.680;2023-10-09T16:21:38;15.20;81.80
7876;DHT22;69649;53.712;9.680;2023-10-09T16:24:04;15.20;81.80
7876;DHT22;69649;53.712;9.680;2023-10-09T16:26:35;15.20;81.70
7876;DHT22;69649;53.712;9.680;2023-10-09T16:29:09;15.20;81.60
7876;DHT22;69649;53.712;9.680;2023-10-09T16:31:35;15.20;81.80
7876;DHT22;69649;53.712;9.680;2023-10-09T16:34:05;15.10;81.90
7876;DHT22;69649;53.712;9.680;2023-10-09T16:36:34;15.20;81.90
7876;DHT22;69649;53.712;9.680;2023-10-09T16:39:01;15.10;82.10
7876;DHT22;69649;53.712;9.680;2023-10-09T16:41:28;15.10;82.00
7876;DHT22;69649;53.712;9.680;2023-10-09T16:43:54;15.20;81.80
7876;DHT22;69649;53.712;9.680;2023-10-09T16:46:22;15.20;81.80